Mustang, Texas
Current Conditions -  °F | °C
As of 5:15 AM on Sunday 21 Dec 2014 (Local Time) from KLXY Reporting Station
Overcast Overcast  
Wind Chill: 46°   Ceiling: 2200
Heat Index: 46°   Visibility: 10mi
Dew Point: 45°   Wind: 3mph
Humidity: 96%   Direction: 140°SE
Pressure: 30.11"   Gusts: NA
Location:  31.7447°N, 96.6798°W
Report Text: KLXY 211115Z AUTO 14003KT 10SM SCT011 OVC022 08/07 A3011 RMK AO2 T00760070
Loading
Personal Weather Stations






























Interactive Weather Map New forecast layout! Learn more

10-Day Weather Forecast

Advertisements
Track Severe Weather on mobile